sensor_id;sensor_type;location;lat;lon;timestamp;temperature;humidity
24444;DHT22;13346;50.984;5.822;2024-03-02T00:00:50;9.80;99.90
24444;DHT22;13346;50.984;5.822;2024-03-02T00:03:18;9.80;99.90
24444;DHT22;13346;50.984;5.822;2024-03-02T00:05:49;9.80;99.90
24444;DHT22;13346;50.984;5.822;2024-03-02T00:08:23;9.90;99.90
24444;DHT22;13346;50.984;5.822;2024-03-02T00:10:53;9.90;99.90
24444;DHT22;13346;50.984;5.822;2024-03-02T00:13:24;9.90;99.90
24444;DHT22;13346;50.984;5.822;2024-03-02T00:15:52;9.80;99.90
24444;DHT22;13346;50.984;5.822;2024-03-02T00:18:24;9.80;99.90
24444;DHT22;13346;50.984;5.822;2024-03-02T00:20:54;9.90;99.90
24444;DHT22;13346;50.984;5.822;2024-03-02T00:23:23;9.90;99.90
24444;DHT22;13346;50.984;5.822;2024-03-02T00:25:51;9.90;99.90
24444;DHT22;13346;50.984;5.822;2024-03-02T00:28:22;10.00;99.90
24444;DHT22;13346;50.984;5.822;2024-03-02T00:30:59;10.00;99.90
24444;DHT22;13346;50.984;5.822;2024-03-02T00:33:32;10.00;99.90
24444;DHT22;13346;50.984;5.822;2024-03-02T00:36:00;10.00;99.90
24444;DHT22;13346;50.984;5.822;2024-03-02T00:38:29;10.00;99.90
24444;DHT22;13346;50.984;5.822;2024-03-02T00:40:58;9.90;99.90
24444;DHT22;13346;50.984;5.822;2024-03-02T00:43:47;9.90;99.90
24444;DHT22;13346;50.984;5.822;2024-03-02T00:46:17;9.90;99.90
24444;DHT22;13346;50.984;5.822;2024-03-02T00:48:52;9.90;99.90
24444;DHT22;13346;50.984;5.822;2024-03-02T00:51:20;9.90;99.90
24444;DHT22;13346;50.984;5.822;2024-03-02T00:53:48;9.90;99.90
24444;DHT22;13346;50.984;5.822;2024-03-02T00:56:16;9.90;99.90
24444;DHT22;13346;50.984;5.822;2024-03-02T00:58:46;9.80;99.90
24444;DHT22;13346;50.984;5.822;2024-03-02T01:01:13;9.80;99.90
24444;DHT22;13346;50.984;5.822;2024-03-02T01:03:41;9.90;99.90
24444;DHT22;13346;50.984;5.822;2024-03-02T01:06:09;9.90;99.90
24444;DHT22;13346;50.984;5.822;2024-03-02T01:08:36;9.40;99.90
24444;DHT22;13346;50.984;5.822;2024-03-02T01:11:04;8.60;99.90
24444;DHT22;13346;50.984;5.822;2024-03-02T01:13:31;8.00;99.90
24444;DHT22;13346;50.984;5.822;2024-03-02T01:16:00;7.80;99.90
24444;DHT22;13346;50.984;5.822;2024-03-02T01:18:28;7.50;99.90
24444;DHT22;13346;50.984;5.822;2024-03-02T01:20:56;7.50;99.90
24444;DHT22;13346;50.984;5.822;2024-03-02T01:23:23;7.40;99.90
24444;DHT22;13346;50.984;5.822;2024-03-02T01:25:51;7.30;99.90
24444;DHT22;13346;50.984;5.822;2024-03-02T01:28:19;7.30;99.90
24444;DHT22;13346;50.984;5.822;2024-03-02T01:30:47;7.30;99.90
24444;DHT22;13346;50.984;5.822;2024-03-02T01:33:16;7.40;99.90
24444;DHT22;13346;50.984;5.822;2024-03-02T01:35:44;7.40;99.90
24444;DHT22;13346;50.984;5.822;2024-03-02T01:38:11;7.40;99.90
24444;DHT22;13346;50.984;5.822;2024-03-02T01:40:38;7.30;99.90
24444;DHT22;13346;50.984;5.822;2024-03-02T01:43:06;7.40;99.90
24444;DHT22;13346;50.984;5.822;2024-03-02T01:45:34;7.30;99.90
24444;DHT22;13346;50.984;5.822;2024-03-02T01:48:04;7.30;99.90
24444;DHT22;13346;50.984;5.822;2024-03-02T01:50:34;7.40;99.90
24444;DHT22;13346;50.984;5.822;2024-03-02T01:53:01;7.40;99.90
24444;DHT22;13346;50.984;5.822;2024-03-02T01:55:28;7.40;99.90
24444;DHT22;13346;50.984;5.822;2024-03-02T01:57:56;7.30;99.90
24444;DHT22;13346;50.984;5.822;2024-03-02T02:00:23;7.20;99.90
24444;DHT22;13346;50.984;5.822;2024-03-02T02:02:52;7.10;99.90
24444;DHT22;13346;50.984;5.822;2024-03-02T02:05:20;7.00;99.90
24444;DHT22;13346;50.984;5.822;2024-03-02T02:07:49;7.00;99.90
24444;DHT22;13346;50.984;5.822;2024-03-02T02:10:16;6.90;99.90
24444;DHT22;13346;50.984;5.822;2024-03-02T02:12:43;6.80;99.90
24444;DHT22;13346;50.984;5.822;2024-03-02T02:15:26;6.70;99.90
24444;DHT22;13346;50.984;5.822;2024-03-02T02:17:54;6.70;99.90
24444;DHT22;13346;50.984;5.822;2024-03-02T02:20:21;6.70;99.90
24444;DHT22;13346;50.984;5.822;2024-03-02T02:22:57;6.70;99.90
24444;DHT22;13346;50.984;5.822;2024-03-02T02:25:25;6.70;99.90
24444;DHT22;13346;50.984;5.822;2024-03-02T02:27:53;6.70;99.90
24444;DHT22;13346;50.984;5.822;2024-03-02T02:30:21;6.70;99.90
24444;DHT22;13346;50.984;5.822;2024-03-02T02:32:49;6.60;99.90
24444;DHT22;13346;50.984;5.822;2024-03-02T02:35:16;6.60;99.90
24444;DHT22;13346;50.984;5.822;2024-03-02T02:37:44;6.60;99.90
24444;DHT22;13346;50.984;5.822;2024-03-02T02:40:14;6.60;99.90
24444;DHT22;13346;50.984;5.822;2024-03-02T02:42:41;6.50;99.90
24444;DHT22;13346;50.984;5.822;2024-03-02T02:45:09;6.60;99.90
24444;DHT22;13346;50.984;5.822;2024-03-02T02:47:36;6.70;99.90
24444;DHT22;13346;50.984;5.822;2024-03-02T02:50:04;6.70;99.90
24444;DHT22;13346;50.984;5.822;2024-03-02T02:52:35;6.70;99.90
24444;DHT22;13346;50.984;5.822;2024-03-02T02:55:05;6.70;99.90
24444;DHT22;13346;50.984;5.822;2024-03-02T02:57:34;6.80;99.90
24444;DHT22;13346;50.984;5.822;2024-03-02T03:00:05;6.80;99.90
24444;DHT22;13346;50.984;5.822;2024-03-02T03:02:36;6.80;99.90
24444;DHT22;13346;50.984;5.822;2024-03-02T03:05:04;6.80;99.90
24444;DHT22;13346;50.984;5.822;2024-03-02T03:07:32;6.80;99.90
24444;DHT22;13346;50.984;5.822;2024-03-02T03:10:00;6.80;99.90
24444;DHT22;13346;50.984;5.822;2024-03-02T03:12:29;6.80;99.90
24444;DHT22;13346;50.984;5.822;2024-03-02T03:14:58;6.80;99.90
24444;DHT22;13346;50.984;5.822;2024-03-02T03:17:26;6.80;99.90
24444;DHT22;13346;50.984;5.822;2024-03-02T03:19:53;6.80;99.90
24444;DHT22;13346;50.984;5.822;2024-03-02T03:22:20;6.80;99.90
24444;DHT22;13346;50.984;5.822;2024-03-02T03:24:47;6.80;99.90
24444;DHT22;13346;50.984;5.822;2024-03-02T03:27:14;6.80;99.90
24444;DHT22;13346;50.984;5.822;2024-03-02T03:29:42;6.80;99.90
24444;DHT22;13346;50.984;5.822;2024-03-02T03:32:10;6.90;99.90
24444;DHT22;13346;50.984;5.822;2024-03-02T03:34:38;6.90;99.90
24444;DHT22;13346;50.984;5.822;2024-03-02T03:37:06;6.80;99.90
24444;DHT22;13346;50.984;5.822;2024-03-02T03:39:34;6.80;99.90
24444;DHT22;13346;50.984;5.822;2024-03-02T03:42:02;6.80;99.90
24444;DHT22;13346;50.984;5.822;2024-03-02T03:44:29;6.80;99.90
24444;DHT22;13346;50.984;5.822;2024-03-02T03:46:57;6.80;99.90
24444;DHT22;13346;50.984;5.822;2024-03-02T03:49:25;6.80;99.90
24444;DHT22;13346;50.984;5.822;2024-03-02T03:51:52;6.90;99.90
24444;DHT22;13346;50.984;5.822;2024-03-02T03:54:20;6.90;99.90
24444;DHT22;13346;50.984;5.822;2024-03-02T03:56:47;6.90;99.90
24444;DHT22;13346;50.984;5.822;2024-03-02T03:59:14;6.90;99.90
24444;DHT22;13346;50.984;5.822;2024-03-02T04:01:42;6.90;99.90
24444;DHT22;13346;50.984;5.822;2024-03-02T04:04:09;6.90;99.90
24444;DHT22;13346;50.984;5.822;2024-03-02T04:06:37;7.00;99.90
24444;DHT22;13346;50.984;5.822;2024-03-02T04:09:04;7.00;99.90
24444;DHT22;13346;50.984;5.822;2024-03-02T04:11:32;6.90;99.90
24444;DHT22;13346;50.984;5.822;2024-03-02T04:13:59;6.80;99.90
24444;DHT22;13346;50.984;5.822;2024-03-02T04:16:26;6.90;99.90
24444;DHT22;13346;50.984;5.822;2024-03-02T04:18:54;6.90;99.90
24444;DHT22;13346;50.984;5.822;2024-03-02T04:21:21;6.90;99.90
24444;DHT22;13346;50.984;5.822;2024-03-02T04:23:50;6.90;99.90
24444;DHT22;13346;50.984;5.822;2024-03-02T04:26:17;6.90;99.90
24444;DHT22;13346;50.984;5.822;2024-03-02T04:28:47;6.80;99.90
24444;DHT22;13346;50.984;5.822;2024-03-02T04:31:15;6.80;99.90
24444;DHT22;13346;50.984;5.822;2024-03-02T04:33:42;6.90;99.90
24444;DHT22;13346;50.984;5.822;2024-03-02T04:36:09;6.80;99.90
24444;DHT22;13346;50.984;5.822;2024-03-02T04:38:36;6.80;99.90
24444;DHT22;13346;50.984;5.822;2024-03-02T04:41:05;6.90;99.90
24444;DHT22;13346;50.984;5.822;2024-03-02T04:43:33;7.00;99.90
24444;DHT22;13346;50.984;5.822;2024-03-02T04:46:01;7.10;99.90
24444;DHT22;13346;50.984;5.822;2024-03-02T04:48:28;7.10;99.90
24444;DHT22;13346;50.984;5.822;2024-03-02T04:50:55;7.20;99.90
24444;DHT22;13346;50.984;5.822;2024-03-02T04:53:23;7.10;99.90
24444;DHT22;13346;50.984;5.822;2024-03-02T04:55:50;7.20;99.90
24444;DHT22;13346;50.984;5.822;2024-03-02T04:58:36;7.10;99.90
24444;DHT22;13346;50.984;5.822;2024-03-02T05:01:04;7.10;99.90
24444;DHT22;13346;50.984;5.822;2024-03-02T05:03:31;7.20;99.90
24444;DHT22;13346;50.984;5.822;2024-03-02T05:06:00;7.20;99.90
24444;DHT22;13346;50.984;5.822;2024-03-02T05:08:27;7.20;99.90
24444;DHT22;13346;50.984;5.822;2024-03-02T05:10:55;7.20;99.90
24444;DHT22;13346;50.984;5.822;2024-03-02T05:13:44;7.20;99.90
24444;DHT22;13346;50.984;5.822;2024-03-02T05:16:11;7.20;99.90
24444;DHT22;13346;50.984;5.822;2024-03-02T05:18:38;7.20;99.90
24444;DHT22;13346;50.984;5.822;2024-03-02T05:21:05;7.30;99.90
24444;DHT22;13346;50.984;5.822;2024-03-02T05:23:33;7.20;99.90
24444;DHT22;13346;50.984;5.822;2024-03-02T05:26:00;7.20;99.90
24444;DHT22;13346;50.984;5.822;2024-03-02T05:28:27;7.20;99.90
24444;DHT22;13346;50.984;5.822;2024-03-02T05:30:56;7.20;99.90
24444;DHT22;13346;50.984;5.822;2024-03-02T05:33:23;7.20;99.90
24444;DHT22;13346;50.984;5.822;2024-03-02T05:35:50;7.10;99.90
24444;DHT22;13346;50.984;5.822;2024-03-02T05:38:17;7.10;99.90
24444;DHT22;13346;50.984;5.822;2024-03-02T05:40:44;7.00;99.90
24444;DHT22;13346;50.984;5.822;2024-03-02T05:43:11;7.00;99.90
24444;DHT22;13346;50.984;5.822;2024-03-02T05:45:39;7.00;99.90
24444;DHT22;13346;50.984;5.822;2024-03-02T05:48:08;7.10;99.90
24444;DHT22;13346;50.984;5.822;2024-03-02T05:50:35;7.10;99.90
24444;DHT22;13346;50.984;5.822;2024-03-02T05:53:02;7.00;99.90
24444;DHT22;13346;50.984;5.822;2024-03-02T05:55:29;7.00;99.90
24444;DHT22;13346;50.984;5.822;2024-03-02T05:57:56;7.00;99.90
24444;DHT22;13346;50.984;5.822;2024-03-02T06:00:46;7.00;99.90
24444;DHT22;13346;50.984;5.822;2024-03-02T06:03:14;7.10;99.90
24444;DHT22;13346;50.984;5.822;2024-03-02T06:05:41;6.90;99.90
24444;DHT22;13346;50.984;5.822;2024-03-02T06:08:09;6.80;99.90
24444;DHT22;13346;50.984;5.822;2024-03-02T06:10:36;6.70;99.90
24444;DHT22;13346;50.984;5.822;2024-03-02T06:13:03;6.60;99.90
24444;DHT22;13346;50.984;5.822;2024-03-02T06:15:30;6.50;99.90
24444;DHT22;13346;50.984;5.822;2024-03-02T06:17:58;6.50;99.90
24444;DHT22;13346;50.984;5.822;2024-03-02T06:20:27;6.40;99.90
24444;DHT22;13346;50.984;5.822;2024-03-02T06:22:56;6.30;99.90
24444;DHT22;13346;50.984;5.822;2024-03-02T06:25:23;6.30;99.90
24444;DHT22;13346;50.984;5.822;2024-03-02T06:27:51;6.40;99.90
24444;DHT22;13346;50.984;5.822;2024-03-02T06:30:18;6.50;99.90
24444;DHT22;13346;50.984;5.822;2024-03-02T06:32:45;6.40;99.90
24444;DHT22;13346;50.984;5.822;2024-03-02T06:35:12;6.40;99.90
24444;DHT22;13346;50.984;5.822;2024-03-02T06:37:41;6.40;99.90
24444;DHT22;13346;50.984;5.822;2024-03-02T06:40:09;6.30;99.90
24444;DHT22;13346;50.984;5.822;2024-03-02T06:42:36;6.20;99.90
24444;DHT22;13346;50.984;5.822;2024-03-02T06:45:04;6.20;99.90
24444;DHT22;13346;50.984;5.822;2024-03-02T06:47:31;6.30;99.90
24444;DHT22;13346;50.984;5.822;2024-03-02T06:49:59;6.50;99.90
24444;DHT22;13346;50.984;5.822;2024-03-02T06:52:26;6.50;99.90
24444;DHT22;13346;50.984;5.822;2024-03-02T06:54:54;6.60;99.90
24444;DHT22;13346;50.984;5.822;2024-03-02T06:57:21;6.50;99.90
24444;DHT22;13346;50.984;5.822;2024-03-02T06:59:47;6.50;99.90
24444;DHT22;13346;50.984;5.822;2024-03-02T07:02:17;6.60;99.90
24444;DHT22;13346;50.984;5.822;2024-03-02T07:04:44;6.70;99.90
24444;DHT22;13346;50.984;5.822;2024-03-02T07:07:11;6.70;99.90
24444;DHT22;13346;50.984;5.822;2024-03-02T07:09:39;6.80;99.90
24444;DHT22;13346;50.984;5.822;2024-03-02T07:12:07;6.90;99.90
24444;DHT22;13346;50.984;5.822;2024-03-02T07:14:35;7.00;99.90
24444;DHT22;13346;50.984;5.822;2024-03-02T07:17:19;7.10;99.90
24444;DHT22;13346;50.984;5.822;2024-03-02T07:19:46;7.30;99.90
24444;DHT22;13346;50.984;5.822;2024-03-02T07:22:14;7.50;99.90
24444;DHT22;13346;50.984;5.822;2024-03-02T07:24:41;7.60;99.90
24444;DHT22;13346;50.984;5.822;2024-03-02T07:27:10;7.70;99.90
24444;DHT22;13346;50.984;5.822;2024-03-02T07:29:38;7.80;99.90
24444;DHT22;13346;50.984;5.822;2024-03-02T07:32:06;7.90;99.90
24444;DHT22;13346;50.984;5.822;2024-03-02T07:34:33;8.00;99.90
24444;DHT22;13346;50.984;5.822;2024-03-02T07:37:01;8.00;99.90
24444;DHT22;13346;50.984;5.822;2024-03-02T07:39:31;8.10;99.90
24444;DHT22;13346;50.984;5.822;2024-03-02T07:41:59;8.10;99.90
24444;DHT22;13346;50.984;5.822;2024-03-02T07:44:28;8.20;99.90
24444;DHT22;13346;50.984;5.822;2024-03-02T07:46:55;8.30;99.90
24444;DHT22;13346;50.984;5.822;2024-03-02T07:49:22;8.30;99.90
24444;DHT22;13346;50.984;5.822;2024-03-02T07:51:50;8.30;99.90
24444;DHT22;13346;50.984;5.822;2024-03-02T07:54:17;8.30;99.90
24444;DHT22;13346;50.984;5.822;2024-03-02T07:56:45;8.30;99.90
24444;DHT22;13346;50.984;5.822;2024-03-02T07:59:13;8.30;99.90
24444;DHT22;13346;50.984;5.822;2024-03-02T08:01:42;8.30;99.90
24444;DHT22;13346;50.984;5.822;2024-03-02T08:04:12;8.20;99.90
24444;DHT22;13346;50.984;5.822;2024-03-02T08:06:40;8.20;99.90
24444;DHT22;13346;50.984;5.822;2024-03-02T08:09:07;8.20;99.90
24444;DHT22;13346;50.984;5.822;2024-03-02T08:11:36;8.20;99.90
24444;DHT22;13346;50.984;5.822;2024-03-02T08:14:04;8.20;99.90
24444;DHT22;13346;50.984;5.822;2024-03-02T08:16:31;8.20;99.90
24444;DHT22;13346;50.984;5.822;2024-03-02T08:19:00;8.30;99.90
24444;DHT22;13346;50.984;5.822;2024-03-02T08:21:27;8.40;99.90
24444;DHT22;13346;50.984;5.822;2024-03-02T08:23:56;8.40;99.90
24444;DHT22;13346;50.984;5.822;2024-03-02T08:26:24;8.50;99.90
24444;DHT22;13346;50.984;5.822;2024-03-02T08:28:54;8.60;99.90
24444;DHT22;13346;50.984;5.822;2024-03-02T08:31:21;8.60;99.90
24444;DHT22;13346;50.984;5.822;2024-03-02T08:33:48;8.70;99.90
24444;DHT22;13346;50.984;5.822;2024-03-02T08:36:17;8.80;99.90
24444;DHT22;13346;50.984;5.822;2024-03-02T08:38:45;8.80;99.90
24444;DHT22;13346;50.984;5.822;2024-03-02T08:41:12;8.80;99.90
24444;DHT22;13346;50.984;5.822;2024-03-02T08:43:42;8.90;99.90
24444;DHT22;13346;50.984;5.822;2024-03-02T08:46:09;9.10;99.90
24444;DHT22;13346;50.984;5.822;2024-03-02T08:48:37;9.30;99.90
24444;DHT22;13346;50.984;5.822;2024-03-02T08:51:04;9.20;99.90
24444;DHT22;13346;50.984;5.822;2024-03-02T08:53:35;9.20;99.90
24444;DHT22;13346;50.984;5.822;2024-03-02T08:56:02;9.20;99.90
24444;DHT22;13346;50.984;5.822;2024-03-02T08:58:31;9.40;99.90
24444;DHT22;13346;50.984;5.822;2024-03-02T09:00:58;9.30;99.90
24444;DHT22;13346;50.984;5.822;2024-03-02T09:03:27;9.40;99.90
24444;DHT22;13346;50.984;5.822;2024-03-02T09:05:54;9.40;99.90
24444;DHT22;13346;50.984;5.822;2024-03-02T09:08:22;9.40;99.90
24444;DHT22;13346;50.984;5.822;2024-03-02T09:10:50;9.60;99.90
24444;DHT22;13346;50.984;5.822;2024-03-02T09:13:18;9.70;99.90
24444;DHT22;13346;50.984;5.822;2024-03-02T09:15:46;10.00;99.90
24444;DHT22;13346;50.984;5.822;2024-03-02T09:18:13;10.20;99.90
24444;DHT22;13346;50.984;5.822;2024-03-02T09:20:41;10.40;99.90
24444;DHT22;13346;50.984;5.822;2024-03-02T09:23:08;10.30;99.90
24444;DHT22;13346;50.984;5.822;2024-03-02T09:25:35;10.30;99.90
24444;DHT22;13346;50.984;5.822;2024-03-02T09:28:04;10.30;99.90
24444;DHT22;13346;50.984;5.822;2024-03-02T09:30:33;10.40;99.90
24444;DHT22;13346;50.984;5.822;2024-03-02T09:33:00;10.30;99.90
24444;DHT22;13346;50.984;5.822;2024-03-02T09:35:29;10.40;99.90
24444;DHT22;13346;50.984;5.822;2024-03-02T09:37:56;10.60;99.90
24444;DHT22;13346;50.984;5.822;2024-03-02T09:40:26;10.40;99.90
24444;DHT22;13346;50.984;5.822;2024-03-02T09:42:54;10.50;99.90
24444;DHT22;13346;50.984;5.822;2024-03-02T09:45:25;10.60;99.90
24444;DHT22;13346;50.984;5.822;2024-03-02T09:47:53;10.80;99.90
24444;DHT22;13346;50.984;5.822;2024-03-02T09:50:20;11.00;99.90
24444;DHT22;13346;50.984;5.822;2024-03-02T09:52:48;11.30;99.90
24444;DHT22;13346;50.984;5.822;2024-03-02T09:55:16;11.40;99.90
24444;DHT22;13346;50.984;5.822;2024-03-02T09:57:45;11.50;99.90
24444;DHT22;13346;50.984;5.822;2024-03-02T10:00:15;11.60;99.90
24444;DHT22;13346;50.984;5.822;2024-03-02T10:02:44;11.80;99.90
24444;DHT22;13346;50.984;5.822;2024-03-02T10:05:23;11.70;99.90
24444;DHT22;13346;50.984;5.822;2024-03-02T10:07:59;11.90;99.90
24444;DHT22;13346;50.984;5.822;2024-03-02T10:10:35;12.10;99.90
24444;DHT22;13346;50.984;5.822;2024-03-02T10:13:06;12.00;99.90
24444;DHT22;13346;50.984;5.822;2024-03-02T10:15:36;12.00;99.90
24444;DHT22;13346;50.984;5.822;2024-03-02T10:18:08;11.70;99.90
24444;DHT22;13346;50.984;5.822;2024-03-02T10:20:37;11.60;99.90
24444;DHT22;13346;50.984;5.822;2024-03-02T10:23:11;11.60;99.90
24444;DHT22;13346;50.984;5.822;2024-03-02T10:25:38;11.60;99.90
24444;DHT22;13346;50.984;5.822;2024-03-02T10:28:06;11.80;99.90
24444;DHT22;13346;50.984;5.822;2024-03-02T10:30:33;12.30;99.90
24444;DHT22;13346;50.984;5.822;2024-03-02T10:33:01;12.40;99.90
24444;DHT22;13346;50.984;5.822;2024-03-02T10:35:31;12.50;99.90
24444;DHT22;13346;50.984;5.822;2024-03-02T10:37:59;12.80;99.90
24444;DHT22;13346;50.984;5.822;2024-03-02T10:40:27;13.00;99.90
24444;DHT22;13346;50.984;5.822;2024-03-02T10:42:56;13.20;99.90
24444;DHT22;13346;50.984;5.822;2024-03-02T10:45:23;13.00;99.90
24444;DHT22;13346;50.984;5.822;2024-03-02T10:47:51;13.20;99.90
24444;DHT22;13346;50.984;5.822;2024-03-02T10:50:18;13.50;99.90
24444;DHT22;13346;50.984;5.822;2024-03-02T10:52:47;13.60;99.90
24444;DHT22;13346;50.984;5.822;2024-03-02T10:55:14;13.50;99.90
24444;DHT22;13346;50.984;5.822;2024-03-02T10:57:44;13.50;99.90
24444;DHT22;13346;50.984;5.822;2024-03-02T11:00:14;13.60;99.90
24444;DHT22;13346;50.984;5.822;2024-03-02T11:02:51;13.80;99.90
24444;DHT22;13346;50.984;5.822;2024-03-02T11:05:26;14.10;99.90
24444;DHT22;13346;50.984;5.822;2024-03-02T11:08:00;14.10;99.90
24444;DHT22;13346;50.984;5.822;2024-03-02T11:10:34;13.90;99.90
24444;DHT22;13346;50.984;5.822;2024-03-02T11:13:04;14.40;99.90
24444;DHT22;13346;50.984;5.822;2024-03-02T11:15:34;14.20;99.90
24444;DHT22;13346;50.984;5.822;2024-03-02T11:18:04;14.30;99.90
24444;DHT22;13346;50.984;5.822;2024-03-02T11:20:36;14.20;99.90
24444;DHT22;13346;50.984;5.822;2024-03-02T11:23:09;14.40;99.90
24444;DHT22;13346;50.984;5.822;2024-03-02T11:25:36;14.40;99.90
24444;DHT22;13346;50.984;5.822;2024-03-02T11:28:05;14.40;99.90
24444;DHT22;13346;50.984;5.822;2024-03-02T11:30:51;14.10;99.90
24444;DHT22;13346;50.984;5.822;2024-03-02T11:33:26;14.10;99.90
24444;DHT22;13346;50.984;5.822;2024-03-02T11:35:56;14.30;99.90
24444;DHT22;13346;50.984;5.822;2024-03-02T11:38:28;14.60;99.90
24444;DHT22;13346;50.984;5.822;2024-03-02T11:40:55;14.70;99.90
24444;DHT22;13346;50.984;5.822;2024-03-02T11:43:23;14.40;99.90
24444;DHT22;13346;50.984;5.822;2024-03-02T11:45:57;14.40;99.90
24444;DHT22;13346;50.984;5.822;2024-03-02T11:48:25;14.50;99.90
24444;DHT22;13346;50.984;5.822;2024-03-02T11:50:52;14.50;99.90
24444;DHT22;13346;50.984;5.822;2024-03-02T11:53:21;14.50;99.90
24444;DHT22;13346;50.984;5.822;2024-03-02T11:55:50;14.60;99.90
24444;DHT22;13346;50.984;5.822;2024-03-02T11:58:19;15.00;99.90
24444;DHT22;13346;50.984;5.822;2024-03-02T12:00:50;15.20;99.90
24444;DHT22;13346;50.984;5.822;2024-03-02T12:03:18;15.10;99.90
24444;DHT22;13346;50.984;5.822;2024-03-02T12:05:49;15.20;99.90
24444;DHT22;13346;50.984;5.822;2024-03-02T12:08:16;15.60;99.90
24444;DHT22;13346;50.984;5.822;2024-03-02T12:10:58;16.20;99.90
24444;DHT22;13346;50.984;5.822;2024-03-02T12:13:26;15.90;99.90
24444;DHT22;13346;50.984;5.822;2024-03-02T12:15:54;15.70;99.90
24444;DHT22;13346;50.984;5.822;2024-03-02T12:18:22;15.50;99.90
24444;DHT22;13346;50.984;5.822;2024-03-02T12:20:49;15.40;99.90
24444;DHT22;13346;50.984;5.822;2024-03-02T12:23:18;15.40;99.90
24444;DHT22;13346;50.984;5.822;2024-03-02T12:25:46;16.00;99.90
24444;DHT22;13346;50.984;5.822;2024-03-02T12:28:15;16.10;99.90
24444;DHT22;13346;50.984;5.822;2024-03-02T12:30:43;16.20;99.90
24444;DHT22;13346;50.984;5.822;2024-03-02T12:33:11;16.20;99.90
24444;DHT22;13346;50.984;5.822;2024-03-02T12:35:39;16.50;99.90
24444;DHT22;13346;50.984;5.822;2024-03-02T12:38:07;16.10;99.90
24444;DHT22;13346;50.984;5.822;2024-03-02T12:40:34;16.80;99.90
24444;DHT22;13346;50.984;5.822;2024-03-02T12:43:03;17.00;99.90
24444;DHT22;13346;50.984;5.822;2024-03-02T12:45:39;16.90;99.90
24444;DHT22;13346;50.984;5.822;2024-03-02T12:48:06;16.80;99.90
24444;DHT22;13346;50.984;5.822;2024-03-02T12:50:36;17.00;99.90
24444;DHT22;13346;50.984;5.822;2024-03-02T12:53:03;17.20;99.90
24444;DHT22;13346;50.984;5.822;2024-03-02T12:55:31;16.50;99.90
24444;DHT22;13346;50.984;5.822;2024-03-02T12:57:58;16.10;99.90
24444;DHT22;13346;50.984;5.822;2024-03-02T13:00:26;15.70;99.90
24444;DHT22;13346;50.984;5.822;2024-03-02T13:02:56;15.10;99.90
24444;DHT22;13346;50.984;5.822;2024-03-02T13:05:30;15.70;99.90
24444;DHT22;13346;50.984;5.822;2024-03-02T13:07:58;16.50;99.90
24444;DHT22;13346;50.984;5.822;2024-03-02T13:10:26;16.20;99.90
24444;DHT22;13346;50.984;5.822;2024-03-02T13:12:54;15.60;99.90
24444;DHT22;13346;50.984;5.822;2024-03-02T13:15:22;15.40;99.90
24444;DHT22;13346;50.984;5.822;2024-03-02T13:17:49;15.50;99.90
24444;DHT22;13346;50.984;5.822;2024-03-02T13:20:18;15.60;99.90
24444;DHT22;13346;50.984;5.822;2024-03-02T13:22:45;15.10;99.90
24444;DHT22;13346;50.984;5.822;2024-03-02T13:25:13;15.90;99.90
24444;DHT22;13346;50.984;5.822;2024-03-02T13:27:40;15.50;99.90
24444;DHT22;13346;50.984;5.822;2024-03-02T13:30:08;15.20;99.90
24444;DHT22;13346;50.984;5.822;2024-03-02T13:32:35;15.30;99.90
24444;DHT22;13346;50.984;5.822;2024-03-02T13:35:03;15.50;99.90
24444;DHT22;13346;50.984;5.822;2024-03-02T13:37:32;15.50;99.90
24444;DHT22;13346;50.984;5.822;2024-03-02T13:39:59;15.70;99.90
24444;DHT22;13346;50.984;5.822;2024-03-02T13:42:26;15.70;99.90
24444;DHT22;13346;50.984;5.822;2024-03-02T13:44:54;16.20;99.90
24444;DHT22;13346;50.984;5.822;2024-03-02T13:47:21;16.60;99.90
24444;DHT22;13346;50.984;5.822;2024-03-02T13:49:48;16.30;99.90
24444;DHT22;13346;50.984;5.822;2024-03-02T13:52:15;16.10;99.90
24444;DHT22;13346;50.984;5.822;2024-03-02T13:54:47;15.20;99.90
24444;DHT22;13346;50.984;5.822;2024-03-02T13:57:14;15.10;99.90
24444;DHT22;13346;50.984;5.822;2024-03-02T13:59:45;14.90;99.90
24444;DHT22;13346;50.984;5.822;2024-03-02T14:02:13;14.90;99.90
24444;DHT22;13346;50.984;5.822;2024-03-02T14:04:40;15.50;99.90
24444;DHT22;13346;50.984;5.822;2024-03-02T14:07:07;15.60;99.90
24444;DHT22;13346;50.984;5.822;2024-03-02T14:09:36;16.00;99.90
24444;DHT22;13346;50.984;5.822;2024-03-02T14:12:06;16.50;99.90
24444;DHT22;13346;50.984;5.822;2024-03-02T14:14:34;17.10;99.90
24444;DHT22;13346;50.984;5.822;2024-03-02T14:17:01;16.50;99.90
24444;DHT22;13346;50.984;5.822;2024-03-02T14:19:30;16.10;99.90
24444;DHT22;13346;50.984;5.822;2024-03-02T14:21:57;16.10;99.90
24444;DHT22;13346;50.984;5.822;2024-03-02T14:24:24;15.80;99.90
24444;DHT22;13346;50.984;5.822;2024-03-02T14:26:53;15.50;99.90
24444;DHT22;13346;50.984;5.822;2024-03-02T14:29:24;15.00;99.90
24444;DHT22;13346;50.984;5.822;2024-03-02T14:31:51;15.50;99.90
24444;DHT22;13346;50.984;5.822;2024-03-02T14:34:19;15.80;99.90
24444;DHT22;13346;50.984;5.822;2024-03-02T14:36:46;16.10;99.90
24444;DHT22;13346;50.984;5.822;2024-03-02T14:39:13;16.50;99.90
24444;DHT22;13346;50.984;5.822;2024-03-02T14:41:40;16.40;99.90
24444;DHT22;13346;50.984;5.822;2024-03-02T14:44:08;16.30;99.90
24444;DHT22;13346;50.984;5.822;2024-03-02T14:46:36;15.80;99.90
24444;DHT22;13346;50.984;5.822;2024-03-02T14:49:04;15.40;99.90
24444;DHT22;13346;50.984;5.822;2024-03-02T14:51:31;15.10;99.90
24444;DHT22;13346;50.984;5.822;2024-03-02T14:53:59;14.90;99.90
24444;DHT22;13346;50.984;5.822;2024-03-02T14:56:26;15.00;99.90
24444;DHT22;13346;50.984;5.822;2024-03-02T14:58:54;14.90;99.90
24444;DHT22;13346;50.984;5.822;2024-03-02T15:01:21;14.80;99.90
24444;DHT22;13346;50.984;5.822;2024-03-02T15:03:51;14.70;99.90
24444;DHT22;13346;50.984;5.822;2024-03-02T15:06:19;14.50;99.90
24444;DHT22;13346;50.984;5.822;2024-03-02T15:08:46;14.40;99.90
24444;DHT22;13346;50.984;5.822;2024-03-02T15:11:14;14.40;99.90
24444;DHT22;13346;50.984;5.822;2024-03-02T15:13:42;14.40;99.90
24444;DHT22;13346;50.984;5.822;2024-03-02T15:16:09;14.50;99.90
24444;DHT22;13346;50.984;5.822;2024-03-02T15:18:36;14.40;99.90
24444;DHT22;13346;50.984;5.822;2024-03-02T15:21:05;14.20;99.90
24444;DHT22;13346;50.984;5.822;2024-03-02T15:23:32;14.00;99.90
24444;DHT22;13346;50.984;5.822;2024-03-02T15:25:58;13.90;99.90
24444;DHT22;13346;50.984;5.822;2024-03-02T15:28:25;13.90;99.90
24444;DHT22;13346;50.984;5.822;2024-03-02T15:30:53;13.80;99.90
24444;DHT22;13346;50.984;5.822;2024-03-02T15:33:20;13.90;99.90
24444;DHT22;13346;50.984;5.822;2024-03-02T15:36:00;13.80;99.90
24444;DHT22;13346;50.984;5.822;2024-03-02T15:38:30;13.90;99.90
24444;DHT22;13346;50.984;5.822;2024-03-02T15:40:58;13.80;99.90
24444;DHT22;13346;50.984;5.822;2024-03-02T15:43:26;13.90;99.90
24444;DHT22;13346;50.984;5.822;2024-03-02T15:45:55;13.80;99.90
24444;DHT22;13346;50.984;5.822;2024-03-02T15:48:22;13.80;99.90